createdAt,value
2018-01-07T00:01:40.908Z,1.57
2018-01-07T00:06:43.292Z,1.70
2018-01-07T00:11:45.691Z,1.57
2018-01-07T00:16:47.915Z,1.63
2018-01-07T00:21:49.404Z,1.70
2018-01-07T00:26:50.994Z,1.70
2018-01-07T00:31:53.315Z,1.43
2018-01-07T00:36:54.879Z,1.27
2018-01-07T00:41:56.372Z,1.70
2018-01-07T00:46:57.866Z,1.60
2018-01-07T00:51:59.399Z,2.00
2018-01-07T00:57:00.994Z,1.70
2018-01-07T01:02:02.605Z,2.03
2018-01-07T01:07:04.982Z,2.43
2018-01-07T01:12:07.210Z,2.10
2018-01-07T01:17:08.765Z,2.30
2018-01-07T01:22:10.250Z,2.20
2018-01-07T01:27:12.722Z,2.60
2018-01-07T01:32:14.278Z,2.23
2018-01-07T01:37:15.832Z,2.70
2018-01-07T01:42:18.326Z,3.00
2018-01-07T01:47:20.625Z,2.77
2018-01-07T01:52:22.330Z,3.50
2018-01-07T01:57:23.878Z,3.07
2018-01-07T02:02:25.404Z,2.17
2018-01-07T02:07:27.072Z,2.50
2018-01-07T02:12:28.635Z,3.20
2018-01-07T02:17:30.144Z,3.10
2018-01-07T02:22:31.792Z,3.33
2018-01-07T02:27:34.050Z,3.33
2018-01-07T02:32:35.624Z,3.30
2018-01-07T02:37:37.129Z,2.63
2018-01-07T02:42:38.623Z,3.23
2018-01-07T02:47:40.259Z,2.37
2018-01-07T02:52:41.793Z,2.33
2018-01-07T02:57:43.260Z,3.40
2018-01-07T03:02:45.712Z,2.77
2018-01-07T03:07:48.072Z,2.50
2018-01-07T03:12:49.574Z,2.00
2018-01-07T03:17:51.100Z,2.57
2018-01-07T03:22:53.372Z,1.90
2018-01-07T03:27:55.638Z,2.40
2018-01-07T03:32:57.184Z,1.93
2018-01-07T03:37:58.753Z,1.97
2018-01-07T03:43:00.488Z,2.17
2018-01-07T03:48:02.026Z,2.17
2018-01-07T03:53:03.551Z,2.37
2018-01-07T03:58:05.884Z,2.10
2018-01-07T04:03:08.210Z,1.93
2018-01-07T04:08:09.758Z,1.73
2018-01-07T04:13:12.052Z,1.80
2018-01-07T04:18:14.362Z,1.93
2018-01-07T04:23:15.873Z,2.40
2018-01-07T04:28:17.385Z,2.33
2018-01-07T04:33:19.059Z,2.40
2018-01-07T04:38:20.578Z,2.43
2018-01-07T04:43:22.150Z,2.40
2018-01-07T04:48:23.698Z,1.83
2018-01-07T04:53:25.277Z,2.20
2018-01-07T04:58:26.865Z,1.97
2018-01-07T05:03:29.124Z,2.27
2018-01-07T05:08:30.706Z,2.80
2018-01-07T05:13:32.236Z,2.20
2018-01-07T05:18:33.817Z,2.10
2018-01-07T05:23:35.442Z,2.10
2018-01-07T05:28:37.010Z,2.17
2018-01-07T05:33:38.536Z,2.53
2018-01-07T05:38:40.067Z,1.80
2018-01-07T05:43:41.603Z,2.40
2018-01-07T05:48:43.989Z,2.10
2018-01-07T05:53:46.369Z,2.30
2018-01-07T05:58:48.698Z,2.00
2018-01-07T06:03:50.287Z,2.60
2018-01-07T06:08:51.793Z,2.20
2018-01-07T06:13:54.044Z,2.57
2018-01-07T06:18:55.679Z,2.10
2018-01-07T06:23:57.216Z,1.60
2018-01-07T06:28:59.481Z,2.20
2018-01-07T06:34:00.989Z,1.70
2018-01-07T06:39:02.544Z,2.00
2018-01-07T06:44:04.943Z,2.40
2018-01-07T06:49:06.476Z,2.37
2018-01-07T06:54:07.981Z,2.27
2018-01-07T06:59:09.541Z,2.63
2018-01-07T07:04:11.108Z,2.40
2018-01-07T07:09:12.663Z,2.83
2018-01-07T07:14:14.924Z,2.90
2018-01-07T07:19:16.998Z,2.83
2018-01-07T07:24:18.517Z,2.30
2018-01-07T07:29:20.139Z,2.30
2018-01-07T07:34:21.671Z,2.57
2018-01-07T07:39:23.243Z,2.97
2018-01-07T07:44:24.764Z,2.50
2018-01-07T07:49:27.890Z,1.97
2018-01-07T07:54:29.496Z,2.47
2018-01-07T07:59:30.989Z,1.90
2018-01-07T08:04:32.578Z,2.00
2018-01-07T08:09:34.855Z,2.67
2018-01-07T08:14:36.368Z,1.60
2018-01-07T08:19:37.893Z,2.00
2018-01-07T08:24:40.214Z,1.60
2018-01-07T08:29:41.828Z,1.63
2018-01-07T08:34:43.470Z,1.33
2018-01-07T08:39:45.045Z,1.70
2018-01-07T08:44:46.583Z,1.37
2018-01-07T08:49:48.112Z,1.47
2018-01-07T08:54:49.643Z,1.53
2018-01-07T08:59:51.408Z,1.20
2018-01-07T09:04:52.976Z,1.57
2018-01-07T09:09:54.498Z,1.03
2018-01-07T09:14:56.799Z,1.50
2018-01-07T09:19:58.338Z,1.20
2018-01-07T09:24:59.885Z,1.00
2018-01-07T09:30:01.473Z,1.17
2018-01-07T09:35:03.024Z,1.03
2018-01-07T09:40:04.629Z,1.17
2018-01-07T09:45:06.933Z,1.07
2018-01-07T09:50:08.485Z,1.37
2018-01-07T09:55:10.008Z,1.30
2018-01-07T10:00:11.558Z,1.30
2018-01-07T10:05:13.301Z,1.40
2018-01-07T10:10:16.246Z,1.40
2018-01-07T10:15:17.785Z,1.53
2018-01-07T10:20:19.314Z,1.60
2018-01-07T10:25:20.883Z,1.33
2018-01-07T10:30:22.480Z,1.53
2018-01-07T10:35:23.989Z,2.00
2018-01-07T10:40:25.581Z,2.03
2018-01-07T10:45:27.113Z,2.27
2018-01-07T10:50:28.665Z,2.00
2018-01-07T10:55:30.299Z,1.83
2018-01-07T11:00:38.776Z,1.83
2018-01-07T11:05:40.420Z,1.87
2018-01-07T11:10:42.021Z,2.00
2018-01-07T11:15:43.517Z,1.73
2018-01-07T11:20:45.223Z,2.43
2018-01-07T11:25:47.533Z,2.63
2018-01-07T11:30:49.241Z,1.90
2018-01-07T11:35:50.800Z,1.97
2018-01-07T11:40:52.362Z,1.70
2018-01-07T11:45:53.883Z,2.20
2018-01-07T11:50:56.232Z,2.17
2018-01-07T11:55:57.778Z,2.13
2018-01-07T12:00:59.527Z,2.57
2018-01-07T12:06:01.082Z,2.10
2018-01-07T12:11:02.657Z,1.93
2018-01-07T12:16:04.182Z,2.37
2018-01-07T12:21:05.725Z,2.10
2018-01-07T12:26:07.339Z,2.17
2018-01-07T12:31:08.844Z,1.80
2018-01-07T12:36:10.388Z,2.27
2018-01-07T12:41:12.062Z,2.27
2018-01-07T12:46:14.382Z,2.60
2018-01-07T12:51:16.108Z,2.30
2018-01-07T12:56:18.417Z,1.97
2018-01-07T13:01:20.031Z,2.00
2018-01-07T13:06:21.556Z,2.73
2018-01-07T13:11:23.178Z,2.90
2018-01-07T13:16:24.735Z,3.10
2018-01-07T13:21:26.364Z,3.27
2018-01-07T13:26:27.953Z,3.23
2018-01-07T13:31:30.388Z,3.23
2018-01-07T13:36:32.630Z,3.87
2018-01-07T13:41:34.196Z,4.27
2018-01-07T13:46:35.728Z,4.13
2018-01-07T13:51:38.006Z,4.53
2018-01-07T13:56:40.254Z,4.90
2018-01-07T14:01:41.780Z,5.20
2018-01-07T14:06:43.347Z,4.90
2018-01-07T14:11:44.837Z,6.00
2018-01-07T14:16:46.364Z,5.37
2018-01-07T14:21:48.689Z,6.03
2018-01-07T14:26:50.304Z,6.40
2018-01-07T14:31:52.561Z,5.67
2018-01-07T14:36:54.088Z,5.80
2018-01-07T14:41:55.789Z,6.23
2018-01-07T14:46:57.352Z,6.77
2018-01-07T14:51:58.944Z,5.10
2018-01-07T14:57:00.612Z,6.20
2018-01-07T15:02:02.148Z,7.20
2018-01-07T15:07:03.845Z,7.60
2018-01-07T15:12:05.452Z,7.30
2018-01-07T15:17:07.724Z,7.93
2018-01-07T15:22:09.350Z,7.27
2018-01-07T15:27:10.867Z,7.87
2018-01-07T15:32:13.169Z,8.20
2018-01-07T15:37:14.698Z,7.60
2018-01-07T15:42:16.197Z,10.03
2018-01-07T15:47:18.468Z,7.90
2018-01-07T15:52:20.006Z,7.53
2018-01-07T15:57:21.558Z,7.63
2018-01-07T16:02:23.190Z,7.40
2018-01-07T16:07:24.856Z,7.53
2018-01-07T16:12:27.237Z,7.60
2018-01-07T16:17:29.519Z,8.07
2018-01-07T16:22:31.161Z,7.63
2018-01-07T16:27:32.679Z,6.53
2018-01-07T16:32:34.239Z,8.47
2018-01-07T16:37:37.112Z,8.53
2018-01-07T16:42:38.649Z,7.57
2018-01-07T16:47:40.229Z,9.00
2018-01-07T16:52:41.841Z,8.63
2018-01-07T16:57:44.141Z,7.63
2018-01-07T17:02:45.768Z,9.43
2018-01-07T17:07:47.378Z,7.60
2018-01-07T17:12:48.888Z,8.60
2018-01-07T17:17:50.455Z,8.27
2018-01-07T17:22:51.971Z,9.63
2018-01-07T17:27:54.270Z,8.20
2018-01-07T17:32:55.858Z,7.33
2018-01-07T17:37:57.383Z,7.33
2018-01-07T17:42:59.663Z,8.13
2018-01-07T17:48:02.089Z,7.17
2018-01-07T17:53:03.596Z,6.90
2018-01-07T17:58:05.127Z,9.03
2018-01-07T18:03:06.794Z,8.33
2018-01-07T18:08:08.374Z,7.77
2018-01-07T18:13:09.916Z,7.90
2018-01-07T18:18:11.581Z,8.00
2018-01-07T18:23:13.884Z,7.90
2018-01-07T18:28:15.433Z,8.43
2018-01-07T18:33:17.664Z,7.10
2018-01-07T18:38:19.367Z,7.90
2018-01-07T18:43:20.945Z,8.43
2018-01-07T18:48:30.160Z,8.10
2018-01-07T18:53:31.743Z,8.20
2018-01-07T18:58:33.317Z,6.70
2018-01-07T19:03:35.020Z,8.97
2018-01-07T19:08:36.551Z,9.77
2018-01-07T19:13:38.062Z,9.13
2018-01-07T19:18:39.580Z,8.83
2018-01-07T19:23:41.239Z,8.97
2018-01-07T19:28:42.970Z,9.67
2018-01-07T19:33:44.592Z,8.40
2018-01-07T19:38:46.796Z,8.63
2018-01-07T19:43:48.441Z,8.73
2018-01-07T19:48:50.368Z,8.93
2018-01-07T19:53:52.178Z,8.07
2018-01-07T19:58:54.772Z,7.40
2018-01-07T20:03:57.431Z,9.63
2018-01-07T20:08:58.994Z,9.37
2018-01-07T20:14:00.802Z,8.13
2018-01-07T20:19:03.180Z,8.97
2018-01-07T20:24:04.778Z,9.00
2018-01-07T20:29:06.621Z,9.20
2018-01-07T20:34:08.360Z,9.07
2018-01-07T20:39:09.940Z,9.00
2018-01-07T20:44:11.502Z,7.93
2018-01-07T20:49:13.847Z,10.27
2018-01-07T20:54:15.399Z,9.73
2018-01-07T20:59:16.953Z,8.73
2018-01-07T21:04:18.475Z,10.00
2018-01-07T21:09:20.780Z,10.00
2018-01-07T21:14:23.065Z,10.50
2018-01-07T21:19:25.668Z,9.73
2018-01-07T21:24:27.216Z,10.40
2018-01-07T21:29:36.623Z,9.33
2018-01-07T21:34:38.155Z,9.50
2018-01-07T21:39:39.707Z,9.00
2018-01-07T21:44:42.060Z,8.90
2018-01-07T21:49:43.617Z,8.97
2018-01-07T21:54:45.140Z,9.17
2018-01-07T22:15:53.670Z,9.13
2018-01-07T22:20:55.312Z,9.67
2018-01-07T22:25:56.889Z,8.43
2018-01-07T22:30:58.363Z,7.80
2018-01-07T22:36:00.718Z,7.93
2018-01-07T22:41:02.364Z,7.80
2018-01-07T22:46:03.873Z,8.03
2018-01-07T22:51:05.397Z,7.77
2018-01-07T22:56:06.959Z,7.37
2018-01-07T23:01:08.550Z,7.40
2018-01-07T23:06:10.076Z,7.63
2018-01-07T23:11:11.704Z,8.00
2018-01-07T23:16:13.273Z,9.07
2018-01-07T23:21:14.817Z,6.30
2018-01-07T23:26:16.573Z,7.57
2018-01-07T23:31:18.163Z,7.07
2018-01-07T23:36:19.720Z,7.07
2018-01-07T23:41:22.160Z,7.97
2018-01-07T23:46:24.442Z,6.50
2018-01-07T23:51:26.060Z,7.07
2018-01-07T23:56:27.603Z,7.20
